createdAt,value
2023-04-16T00:00:24.001Z,100.00
2023-04-16T00:05:46.042Z,100.00
2023-04-16T00:08:17.083Z,100.00
2023-04-16T00:10:46.219Z,100.00
2023-04-16T00:16:08.110Z,100.00
2023-04-16T00:18:39.972Z,100.00
2023-04-16T00:21:15.766Z,100.00
2023-04-16T00:23:46.788Z,100.00
2023-04-16T00:29:10.939Z,100.00
2023-04-16T00:31:41.754Z,100.00
2023-04-16T00:34:16.681Z,100.00
2023-04-16T00:42:24.795Z,100.00
2023-04-16T00:44:59.020Z,100.00
2023-04-16T00:47:30.345Z,100.00
2023-04-16T00:50:00.709Z,100.00
2023-04-16T00:55:31.611Z,100.00
2023-04-16T00:58:00.376Z,100.00
2023-04-16T01:01:17.323Z,100.00
2023-04-16T01:03:24.931Z,100.00
2023-04-16T01:05:54.231Z,100.00
2023-04-16T01:08:23.041Z,100.00
2023-04-16T01:10:53.137Z,100.00
2023-04-16T01:13:23.654Z,100.00
2023-04-16T01:15:57.772Z,100.00
2023-04-16T01:18:27.328Z,100.00
2023-04-16T01:21:02.271Z,100.00
2023-04-16T01:23:32.491Z,100.00
2023-04-16T01:26:01.429Z,100.00
2023-04-16T01:28:34.358Z,100.00
2023-04-16T01:31:04.703Z,100.00
2023-04-16T01:33:44.421Z,100.00
2023-04-16T01:36:13.689Z,100.00
2023-04-16T01:38:47.138Z,100.00
2023-04-16T01:44:05.606Z,100.00
2023-04-16T01:46:35.184Z,100.00
2023-04-16T01:49:23.555Z,100.00
2023-04-16T01:55:15.127Z,100.00
2023-04-16T01:57:46.447Z,100.00
2023-04-16T02:00:20.982Z,100.00
2023-04-16T02:02:56.886Z,100.00
2023-04-16T02:05:33.316Z,100.00
2023-04-16T02:08:02.736Z,100.00
2023-04-16T02:10:49.748Z,100.00
2023-04-16T02:13:25.862Z,100.00
2023-04-16T02:15:55.099Z,100.00
2023-04-16T02:18:34.887Z,100.00
2023-04-16T02:21:06.554Z,100.00
2023-04-16T02:23:40.111Z,100.00
2023-04-16T02:26:15.849Z,100.00
2023-04-16T02:28:45.580Z,100.00
2023-04-16T02:34:05.206Z,100.00
2023-04-16T02:36:38.400Z,100.00
2023-04-16T02:39:18.330Z,100.00
2023-04-16T02:41:41.156Z,100.00
2023-04-16T02:44:10.363Z,100.00
2023-04-16T02:46:39.752Z,100.00
2023-04-16T02:49:14.290Z,100.00
2023-04-16T02:51:53.872Z,100.00
2023-04-16T02:54:24.391Z,100.00
2023-04-16T02:56:57.952Z,100.00
2023-04-16T02:59:27.870Z,100.00
2023-04-16T03:02:00.914Z,100.00
2023-04-16T03:04:30.003Z,100.00
2023-04-16T03:07:00.900Z,100.00
2023-04-16T03:09:31.702Z,100.00
2023-04-16T03:12:05.665Z,100.00
2023-04-16T03:14:34.725Z,100.00
2023-04-16T03:17:03.664Z,100.00
2023-04-16T03:22:26.110Z,100.00
2023-04-16T03:24:56.058Z,100.00
2023-04-16T03:27:24.818Z,100.00
2023-04-16T03:29:57.813Z,100.00
2023-04-16T03:32:48.005Z,100.00
2023-04-16T03:35:17.590Z,100.00
2023-04-16T03:37:50.478Z,100.00
2023-04-16T03:40:22.898Z,100.00
2023-04-16T03:45:51.471Z,100.00
2023-04-16T03:48:25.831Z,100.00
2023-04-16T03:50:54.919Z,100.00
2023-04-16T03:53:26.225Z,100.00
2023-04-16T03:55:55.439Z,100.00
2023-04-16T03:58:24.586Z,100.00
2023-04-16T04:00:55.210Z,100.00
2023-04-16T04:03:26.187Z,100.00
2023-04-16T04:05:56.729Z,100.00
2023-04-16T04:08:27.789Z,100.00
2023-04-16T04:10:56.767Z,100.00
2023-04-16T04:13:26.945Z,100.00
2023-04-16T04:15:56.419Z,100.00
2023-04-16T04:18:26.644Z,100.00
2023-04-16T04:20:55.784Z,100.00
2023-04-16T04:23:27.597Z,100.00
2023-04-16T04:25:56.519Z,100.00
2023-04-16T04:28:26.713Z,100.00
2023-04-16T04:30:55.595Z,100.00
2023-04-16T04:33:29.283Z,100.00
2023-04-16T04:35:58.800Z,100.00
2023-04-16T04:38:28.264Z,100.00
2023-04-16T04:40:57.735Z,100.00
2023-04-16T04:43:28.661Z,100.00
2023-04-16T04:45:57.592Z,100.00
2023-04-16T04:48:28.445Z,100.00
2023-04-16T04:50:59.618Z,100.00
2023-04-16T04:53:28.899Z,100.00
2023-04-16T04:56:05.444Z,100.00
2023-04-16T04:58:30.082Z,100.00
2023-04-16T05:00:59.286Z,100.00
2023-04-16T05:03:28.410Z,100.00
2023-04-16T05:05:57.501Z,100.00
2023-04-16T05:08:27.206Z,100.00
2023-04-16T05:10:57.347Z,100.00
2023-04-16T05:13:26.036Z,100.00
2023-04-16T05:15:54.899Z,100.00
2023-04-16T05:18:24.874Z,100.00
2023-04-16T05:20:53.925Z,100.00
2023-04-16T05:23:24.432Z,100.00
2023-04-16T05:25:53.726Z,100.00
2023-04-16T05:28:22.482Z,100.00
2023-04-16T05:30:51.422Z,100.00
2023-04-16T05:33:21.552Z,100.00
2023-04-16T05:35:50.754Z,100.00
2023-04-16T05:38:21.098Z,100.00
2023-04-16T05:40:50.785Z,100.00
2023-04-16T05:43:20.032Z,100.00
2023-04-16T05:45:51.589Z,100.00
2023-04-16T05:48:20.664Z,100.00
2023-04-16T05:50:50.289Z,100.00
2023-04-16T05:53:19.159Z,100.00
2023-04-16T05:55:48.845Z,100.00
2023-04-16T05:58:20.080Z,100.00
2023-04-16T06:00:48.706Z,100.00
2023-04-16T06:03:17.925Z,100.00
2023-04-16T06:05:47.687Z,100.00
2023-04-16T06:08:16.794Z,100.00
2023-04-16T06:10:47.226Z,100.00
2023-04-16T06:13:15.999Z,100.00
2023-04-16T06:15:45.602Z,100.00
2023-04-16T06:18:14.812Z,100.00
2023-04-16T06:20:44.136Z,100.00
2023-04-16T06:23:12.953Z,100.00
2023-04-16T06:25:42.868Z,100.00
2023-04-16T06:28:13.355Z,100.00
2023-04-16T06:30:44.513Z,100.00
2023-04-16T06:33:14.149Z,100.00
2023-04-16T06:35:44.021Z,100.00
2023-04-16T06:38:13.419Z,100.00
2023-04-16T06:40:42.719Z,100.00
2023-04-16T06:43:12.523Z,100.00
2023-04-16T06:45:41.323Z,100.00
2023-04-16T06:48:10.247Z,100.00
2023-04-16T06:50:39.544Z,100.00
2023-04-16T06:53:09.636Z,100.00
2023-04-16T06:55:38.836Z,100.00
2023-04-16T06:58:07.635Z,100.00
2023-04-16T07:00:36.879Z,100.00
2023-04-16T07:03:05.972Z,100.00
2023-04-16T07:05:36.115Z,100.00
2023-04-16T07:08:04.822Z,100.00
2023-04-16T07:10:33.322Z,100.00
2023-04-16T07:13:02.244Z,100.00
2023-04-16T07:15:31.721Z,100.00
2023-04-16T07:18:00.487Z,100.00
2023-04-16T07:20:31.496Z,100.00
2023-04-16T07:23:00.292Z,100.00
2023-04-16T07:25:28.897Z,100.00
2023-04-16T07:27:57.647Z,100.00
2023-04-16T07:30:29.692Z,100.00
2023-04-16T07:32:58.867Z,100.00
2023-04-16T07:35:27.892Z,100.00
2023-04-16T07:37:56.324Z,100.00
2023-04-16T07:40:25.076Z,100.00
2023-04-16T07:42:54.802Z,100.00
2023-04-16T07:45:23.934Z,100.00
2023-04-16T07:47:52.578Z,100.00
2023-04-16T07:50:21.434Z,100.00
2023-04-16T07:52:50.060Z,100.00
2023-04-16T07:55:18.618Z,100.00
2023-04-16T07:57:47.265Z,100.00
2023-04-16T08:00:17.668Z,100.00
2023-04-16T08:02:46.294Z,100.00
2023-04-16T08:05:15.244Z,100.00
2023-04-16T08:07:46.249Z,100.00
2023-04-16T08:10:15.904Z,100.00
2023-04-16T08:12:46.243Z,100.00
2023-04-16T08:15:14.850Z,100.00
2023-04-16T08:17:43.873Z,100.00
2023-04-16T08:20:15.728Z,100.00
2023-04-16T08:22:43.534Z,100.00
2023-04-16T08:25:15.161Z,100.00
2023-04-16T08:27:44.821Z,100.00
2023-04-16T08:30:16.028Z,100.00
2023-04-16T08:32:48.626Z,100.00
2023-04-16T08:35:17.524Z,100.00
2023-04-16T08:37:46.099Z,100.00
2023-04-16T08:40:15.017Z,100.00
2023-04-16T08:42:58.239Z,100.00
2023-04-16T08:45:27.371Z,100.00
2023-04-16T08:47:55.880Z,100.00
2023-04-16T08:50:25.702Z,100.00
2023-04-16T08:53:00.451Z,100.00
2023-04-16T08:55:39.818Z,100.00
2023-04-16T08:58:21.493Z,100.00
2023-04-16T09:00:50.088Z,100.00
2023-04-16T09:03:20.499Z,100.00
2023-04-16T09:05:50.150Z,100.00
2023-04-16T09:08:19.851Z,100.00
2023-04-16T09:10:48.572Z,100.00
2023-04-16T09:13:20.146Z,100.00
2023-04-16T09:15:50.695Z,100.00
2023-04-16T09:18:23.121Z,100.00
2023-04-16T09:20:52.063Z,100.00
2023-04-16T09:23:20.892Z,100.00
2023-04-16T09:25:49.546Z,100.00
2023-04-16T09:28:46.114Z,100.00
2023-04-16T09:31:16.502Z,100.00
2023-04-16T09:34:03.284Z,100.00
2023-04-16T09:36:33.853Z,100.00
2023-04-16T09:39:03.532Z,100.00
2023-04-16T09:41:38.521Z,100.00
2023-04-16T09:44:08.849Z,100.00
2023-04-16T09:46:42.631Z,100.00
2023-04-16T09:49:16.524Z,100.00
2023-04-16T09:51:49.333Z,100.00
2023-04-16T09:54:19.743Z,100.00
2023-04-16T09:56:48.786Z,100.00
2023-04-16T09:59:18.918Z,100.00
2023-04-16T10:01:53.696Z,100.00
2023-04-16T10:04:23.858Z,100.00
2023-04-16T10:07:05.462Z,100.00
2023-04-16T10:09:38.897Z,100.00
2023-04-16T10:12:07.978Z,100.00
2023-04-16T10:14:36.728Z,100.00
2023-04-16T10:17:06.556Z,100.00
2023-04-16T10:19:36.246Z,100.00
2023-04-16T10:22:05.579Z,100.00
2023-04-16T10:24:35.407Z,100.00
2023-04-16T10:27:03.920Z,100.00
2023-04-16T10:29:33.030Z,100.00
2023-04-16T10:32:01.661Z,100.00
2023-04-16T10:34:30.979Z,100.00
2023-04-16T10:36:59.533Z,100.00
2023-04-16T10:39:30.526Z,100.00
2023-04-16T10:42:12.436Z,100.00
2023-04-16T10:44:44.343Z,100.00
2023-04-16T10:47:12.591Z,100.00
2023-04-16T10:49:42.141Z,99.96
2023-04-16T10:52:13.124Z,100.00
2023-04-16T10:54:41.763Z,100.00
2023-04-16T10:57:16.310Z,100.00
2023-04-16T10:59:45.004Z,100.00
2023-04-16T11:02:15.606Z,100.00
2023-04-16T11:04:45.792Z,100.00
2023-04-16T11:07:19.159Z,100.00
2023-04-16T11:09:56.174Z,100.00
2023-04-16T11:12:27.488Z,100.00
2023-04-16T11:15:20.529Z,100.00
2023-04-16T11:17:51.418Z,100.00
2023-04-16T11:20:25.702Z,100.00
2023-04-16T11:22:56.568Z,100.00
2023-04-16T11:25:30.116Z,100.00
2023-04-16T11:27:59.381Z,100.00
2023-04-16T11:30:37.503Z,100.00
2023-04-16T11:33:08.286Z,100.00
2023-04-16T11:35:39.191Z,100.00
2023-04-16T11:38:07.760Z,100.00
2023-04-16T11:40:36.275Z,100.00
2023-04-16T11:43:16.564Z,100.00
2023-04-16T11:46:12.776Z,100.00
2023-04-16T11:48:50.222Z,100.00
2023-04-16T11:51:19.278Z,100.00
2023-04-16T11:53:50.064Z,100.00
2023-04-16T11:56:28.021Z,100.00
2023-04-16T11:59:16.617Z,100.00
2023-04-16T12:01:58.521Z,100.00
2023-04-16T12:04:28.976Z,99.99
2023-04-16T12:07:10.846Z,99.99
2023-04-16T12:09:41.358Z,99.71
2023-04-16T12:12:30.858Z,99.54
2023-04-16T12:15:02.400Z,99.21
2023-04-16T12:17:35.374Z,98.75
2023-04-16T12:20:09.488Z,98.64
2023-04-16T12:22:47.186Z,98.72
2023-04-16T12:25:17.535Z,98.66
2023-04-16T12:27:55.327Z,98.78
2023-04-16T12:30:24.680Z,98.78
2023-04-16T12:33:16.373Z,98.79
2023-04-16T12:35:45.536Z,98.90
2023-04-16T12:38:17.022Z,98.56
2023-04-16T12:40:46.261Z,98.61
2023-04-16T12:43:14.651Z,98.60
2023-04-16T12:45:44.299Z,98.72
2023-04-16T12:48:13.069Z,98.58
2023-04-16T12:50:44.107Z,98.67
2023-04-16T12:53:12.911Z,98.58
2023-04-16T12:55:42.403Z,98.61
2023-04-16T12:58:12.582Z,98.93
2023-04-16T13:00:41.311Z,99.03
2023-04-16T13:03:09.885Z,98.74
2023-04-16T13:05:38.551Z,98.46
2023-04-16T13:08:08.232Z,98.42
2023-04-16T13:10:38.552Z,98.08
2023-04-16T13:13:08.602Z,98.05
2023-04-16T13:15:37.662Z,98.10
2023-04-16T13:18:07.297Z,97.86
2023-04-16T13:20:36.633Z,97.75
2023-04-16T13:23:05.507Z,97.55
2023-04-16T13:25:36.544Z,97.52
2023-04-16T13:28:05.990Z,96.63
2023-04-16T13:30:35.346Z,96.78
2023-04-16T13:33:03.975Z,96.89
2023-04-16T13:35:33.634Z,96.70
2023-04-16T13:38:02.357Z,96.40
2023-04-16T13:40:31.692Z,96.29
2023-04-16T13:43:00.270Z,96.23
2023-04-16T13:45:29.059Z,96.05
2023-04-16T13:47:57.745Z,95.90
2023-04-16T13:50:26.264Z,95.83
2023-04-16T13:52:56.258Z,95.27
2023-04-16T13:55:24.798Z,95.34
2023-04-16T13:57:53.405Z,95.09
2023-04-16T14:00:22.523Z,95.19
2023-04-16T14:02:51.030Z,95.39
2023-04-16T14:05:20.313Z,95.13
2023-04-16T14:07:53.235Z,94.90
2023-04-16T14:10:22.478Z,94.49
2023-04-16T14:12:51.945Z,94.27
2023-04-16T14:15:21.992Z,94.21
2023-04-16T14:17:50.834Z,94.29
2023-04-16T14:20:20.496Z,94.37
2023-04-16T14:22:51.118Z,94.41
2023-04-16T14:25:19.935Z,94.62
2023-04-16T14:27:48.922Z,94.70
2023-04-16T14:30:17.955Z,94.57
2023-04-16T14:32:47.834Z,94.44
2023-04-16T14:35:16.871Z,94.23
2023-04-16T14:37:46.988Z,94.14
2023-04-16T14:40:16.120Z,93.99
2023-04-16T14:42:45.006Z,94.03
2023-04-16T14:45:17.744Z,94.01
2023-04-16T14:47:47.993Z,94.14
2023-04-16T14:50:16.645Z,94.09
2023-04-16T14:52:45.150Z,93.97
2023-04-16T14:55:13.738Z,93.91
2023-04-16T14:57:42.584Z,93.81
2023-04-16T15:00:13.359Z,93.62
2023-04-16T15:02:42.836Z,93.57
2023-04-16T15:05:11.480Z,93.71
2023-04-16T15:07:41.991Z,93.55
2023-04-16T15:10:12.486Z,93.53
2023-04-16T15:12:42.296Z,93.65
2023-04-16T15:15:11.680Z,93.74
2023-04-16T15:17:43.590Z,93.83
2023-04-16T15:20:13.177Z,93.78
2023-04-16T15:22:43.539Z,93.59
2023-04-16T15:25:12.217Z,93.44
2023-04-16T15:27:43.046Z,93.50
2023-04-16T15:30:13.301Z,93.61
2023-04-16T15:32:42.617Z,93.71
2023-04-16T15:35:14.833Z,93.91
2023-04-16T15:37:43.859Z,94.15
2023-04-16T15:40:14.083Z,94.32
2023-04-16T15:42:44.119Z,94.50
2023-04-16T15:45:12.740Z,94.49
2023-04-16T15:47:42.197Z,94.70
2023-04-16T15:50:10.992Z,94.71
2023-04-16T15:52:41.235Z,94.80
2023-04-16T15:55:10.222Z,94.83
2023-04-16T15:57:38.763Z,94.97
2023-04-16T16:00:16.406Z,94.81
2023-04-16T16:02:46.610Z,94.64
2023-04-16T16:05:16.548Z,94.46
2023-04-16T16:07:46.746Z,94.57
2023-04-16T16:10:15.432Z,94.48
2023-04-16T16:12:46.363Z,94.16
2023-04-16T16:15:15.959Z,94.23
2023-04-16T16:17:44.797Z,94.16
2023-04-16T16:20:14.400Z,94.18
2023-04-16T16:22:46.679Z,94.20
2023-04-16T16:25:16.354Z,94.21
2023-04-16T16:27:45.582Z,94.22
2023-04-16T16:30:14.697Z,94.00
2023-04-16T16:32:44.026Z,93.91
2023-04-16T16:35:13.172Z,94.00
2023-04-16T16:37:42.164Z,94.05
2023-04-16T16:40:11.948Z,94.21
2023-04-16T16:42:40.438Z,94.32
2023-04-16T16:45:11.186Z,94.28
2023-04-16T16:47:40.157Z,94.31
2023-04-16T16:50:11.219Z,94.21
2023-04-16T16:52:39.880Z,94.37
2023-04-16T16:55:10.984Z,94.43
2023-04-16T16:57:39.659Z,94.37
2023-04-16T17:00:14.398Z,94.39
2023-04-16T17:02:43.445Z,94.42
2023-04-16T17:05:12.525Z,94.37
2023-04-16T17:07:41.260Z,94.30
2023-04-16T17:10:12.918Z,94.27
2023-04-16T17:12:42.007Z,94.24
2023-04-16T17:15:11.877Z,94.39
2023-04-16T17:17:40.492Z,94.50
2023-04-16T17:20:10.469Z,94.51
2023-04-16T17:22:40.210Z,94.60
2023-04-16T17:25:09.222Z,94.65
2023-04-16T17:27:40.960Z,94.70
2023-04-16T17:30:10.604Z,94.83
2023-04-16T17:32:39.175Z,94.79
2023-04-16T17:35:09.684Z,94.68
2023-04-16T17:37:39.033Z,94.77
2023-04-16T17:40:09.971Z,94.64
2023-04-16T17:42:38.983Z,94.69
2023-04-16T17:45:08.968Z,94.83
2023-04-16T17:47:38.346Z,94.90
2023-04-16T17:50:10.143Z,94.85
2023-04-16T17:52:38.876Z,94.93
2023-04-16T17:55:10.256Z,94.93
2023-04-16T17:57:39.223Z,95.02
2023-04-16T18:00:11.270Z,95.00
2023-04-16T18:02:43.474Z,95.12
2023-04-16T18:05:12.413Z,95.01
2023-04-16T18:07:41.079Z,95.10
2023-04-16T18:10:10.803Z,95.22
2023-04-16T18:12:39.964Z,95.22
2023-04-16T18:15:10.374Z,95.24
2023-04-16T18:17:39.177Z,95.23
2023-04-16T18:20:11.328Z,95.21
2023-04-16T18:22:40.211Z,95.16
2023-04-16T18:25:09.302Z,95.22
2023-04-16T18:27:38.224Z,95.25
2023-04-16T18:30:17.601Z,95.13
2023-04-16T18:32:46.872Z,95.09
2023-04-16T18:35:10.490Z,95.07
2023-04-16T18:37:40.492Z,95.11
2023-04-16T18:40:10.501Z,95.07
2023-04-16T18:42:40.376Z,94.98
2023-04-16T18:45:12.175Z,94.94
2023-04-16T18:47:43.197Z,95.07
2023-04-16T18:50:12.023Z,94.99
2023-04-16T18:52:40.823Z,94.90
2023-04-16T18:55:09.875Z,94.84
2023-04-16T18:57:39.922Z,94.79
2023-04-16T19:00:11.353Z,94.79
2023-04-16T19:02:40.357Z,94.71
2023-04-16T19:05:09.606Z,94.78
2023-04-16T19:07:38.292Z,94.84
2023-04-16T19:10:09.952Z,94.66
2023-04-16T19:12:38.716Z,94.51
2023-04-16T19:15:08.327Z,94.54
2023-04-16T19:17:40.415Z,94.51
2023-04-16T19:20:10.941Z,94.50
2023-04-16T19:22:40.547Z,94.32
2023-04-16T19:25:10.321Z,94.18
2023-04-16T19:27:39.572Z,94.15
2023-04-16T19:30:09.645Z,94.20
2023-04-16T19:32:40.348Z,94.11
2023-04-16T19:35:10.408Z,94.24
2023-04-16T19:37:38.933Z,94.14
2023-04-16T19:40:09.582Z,94.11
2023-04-16T19:42:38.118Z,94.06
2023-04-16T19:45:10.187Z,93.88
2023-04-16T19:47:38.864Z,93.99
2023-04-16T19:50:09.062Z,93.95
2023-04-16T19:52:38.657Z,93.88
2023-04-16T19:55:10.043Z,93.80
2023-04-16T19:57:38.471Z,93.81
2023-04-16T20:00:10.227Z,93.81
2023-04-16T20:02:38.660Z,93.81
2023-04-16T20:05:09.289Z,93.71
2023-04-16T20:07:38.398Z,93.66
2023-04-16T20:10:08.426Z,93.57
2023-04-16T20:12:37.527Z,93.58
2023-04-16T20:15:08.158Z,93.62
2023-04-16T20:17:37.383Z,93.69
2023-04-16T20:20:10.255Z,93.68
2023-04-16T20:22:39.541Z,93.67
2023-04-16T20:25:09.393Z,93.68
2023-04-16T20:27:37.973Z,93.68
2023-04-16T20:30:07.656Z,93.67
2023-04-16T20:32:36.432Z,93.76
2023-04-16T20:35:09.370Z,93.70
2023-04-16T20:37:38.630Z,93.79
2023-04-16T20:40:09.036Z,93.77
2023-04-16T20:42:40.954Z,93.78
2023-04-16T20:45:10.789Z,93.78
2023-04-16T20:47:39.707Z,93.75
2023-04-16T20:50:10.913Z,93.55
2023-04-16T20:52:42.190Z,93.55
2023-04-16T20:55:10.922Z,93.65
2023-04-16T20:57:39.513Z,93.66
2023-04-16T21:00:11.448Z,93.62
2023-04-16T21:02:40.797Z,93.71
2023-04-16T21:05:12.462Z,93.89
2023-04-16T21:07:41.974Z,93.86
2023-04-16T21:10:11.867Z,93.83
2023-04-16T21:12:41.606Z,93.74
2023-04-16T21:15:11.232Z,93.77
2023-04-16T21:17:40.439Z,93.75
2023-04-16T21:20:13.924Z,93.88
2023-04-16T21:22:43.628Z,93.85
2023-04-16T21:25:12.543Z,93.73
2023-04-16T21:27:41.499Z,93.75
2023-04-16T21:30:11.586Z,93.73
2023-04-16T21:32:40.508Z,93.79
2023-04-16T21:35:10.047Z,93.81
2023-04-16T21:37:38.534Z,93.91
2023-04-16T21:40:08.919Z,93.87
2023-04-16T21:42:41.132Z,93.82
2023-04-16T21:45:10.658Z,93.90
2023-04-16T21:47:40.521Z,93.95
2023-04-16T21:50:10.208Z,93.86
2023-04-16T21:52:40.074Z,93.78
2023-04-16T21:55:09.905Z,93.77
2023-04-16T21:57:38.722Z,93.82
2023-04-16T22:00:15.010Z,93.83
2023-04-16T22:02:43.738Z,93.87
2023-04-16T22:05:13.645Z,93.86
2023-04-16T22:07:42.705Z,93.89
2023-04-16T22:10:15.169Z,93.99
2023-04-16T22:12:45.433Z,93.99
2023-04-16T22:15:14.129Z,93.97
2023-04-16T22:17:43.134Z,93.95
2023-04-16T22:20:12.774Z,93.83
2023-04-16T22:22:42.241Z,93.77
2023-04-16T22:25:11.110Z,93.78
2023-04-16T22:27:40.745Z,93.78
2023-04-16T22:30:10.911Z,93.83
2023-04-16T22:32:40.858Z,93.91
2023-04-16T22:35:10.053Z,93.80
2023-04-16T22:37:38.855Z,93.80
2023-04-16T22:40:11.077Z,93.92
2023-04-16T22:42:39.760Z,93.97
2023-04-16T22:45:09.285Z,94.05
2023-04-16T22:47:39.024Z,94.08
2023-04-16T22:50:10.541Z,94.10
2023-04-16T22:52:40.334Z,94.16
2023-04-16T22:55:09.728Z,94.19
2023-04-16T22:57:38.868Z,94.19
2023-04-16T23:00:11.205Z,94.17
2023-04-16T23:02:40.670Z,94.21
2023-04-16T23:05:10.269Z,94.25
2023-04-16T23:07:38.841Z,94.21
2023-04-16T23:10:08.888Z,94.14
2023-04-16T23:12:38.263Z,94.18
2023-04-16T23:15:09.053Z,94.23
2023-04-16T23:17:37.699Z,94.22
2023-04-16T23:20:09.937Z,94.25
2023-04-16T23:22:40.305Z,94.27
2023-04-16T23:25:10.247Z,94.38
2023-04-16T23:27:39.649Z,94.44
2023-04-16T23:30:09.741Z,94.39
2023-04-16T23:32:38.879Z,94.41
2023-04-16T23:35:09.038Z,94.52
2023-04-16T23:37:38.824Z,94.62
2023-04-16T23:40:08.685Z,94.68
2023-04-16T23:42:37.821Z,94.72
2023-04-16T23:45:08.070Z,94.65
2023-04-16T23:47:36.823Z,94.61
2023-04-16T23:50:07.004Z,94.65
2023-04-16T23:52:36.243Z,94.73
2023-04-16T23:55:06.087Z,94.86
2023-04-16T23:57:34.886Z,94.96
